createdAt,value
2022-12-23T00:00:25.361Z,99229.59
2022-12-23T00:02:53.638Z,99224.59
2022-12-23T00:05:21.419Z,99228.63
2022-12-23T00:07:49.007Z,99226.25
2022-12-23T00:10:17.649Z,99227.03
2022-12-23T00:12:45.379Z,99231.28
2022-12-23T00:15:13.832Z,99237.66
2022-12-23T00:17:43.480Z,99235.22
2022-12-23T00:20:15.150Z,99237.66
2022-12-23T00:22:43.353Z,99238.94
2022-12-23T00:25:12.339Z,99245.59
2022-12-23T00:27:40.092Z,99236.34
2022-12-23T00:30:10.791Z,99245.63
2022-12-23T00:32:39.035Z,99248.25
2022-12-23T00:35:06.811Z,99245.59
2022-12-23T00:37:34.750Z,99250.16
2022-12-23T00:40:06.918Z,99251.09
2022-12-23T00:42:35.055Z,99249.41
2022-12-23T00:45:02.792Z,99250.56
2022-12-23T00:47:30.415Z,99254.09
2022-12-23T00:50:02.446Z,99252.97
2022-12-23T00:52:30.113Z,99235.16
2022-12-23T00:54:58.046Z,99250.59
2022-12-23T00:57:25.622Z,99253.47
2022-12-23T00:59:54.261Z,99247.31
2022-12-23T01:02:22.362Z,99244.91
2022-12-23T01:04:50.363Z,99244.63
2022-12-23T01:07:18.077Z,99239.94
2022-12-23T01:09:46.241Z,99237.28
2022-12-23T01:12:14.060Z,99227.72
2022-12-23T01:14:41.813Z,99227.97
2022-12-23T01:17:09.885Z,99227.97
2022-12-23T01:19:39.927Z,99212.25
2022-12-23T01:22:07.628Z,99212.81
2022-12-23T01:24:35.584Z,99218.97
2022-12-23T01:27:03.393Z,99223.22
2022-12-23T01:29:31.229Z,99224.28
2022-12-23T01:31:59.338Z,99224.81
2022-12-23T01:34:32.503Z,99223.00
2022-12-23T01:37:04.966Z,99216.37
2022-12-23T01:39:32.828Z,99212.69
2022-12-23T01:42:00.466Z,99216.41
2022-12-23T01:44:50.139Z,99211.09
2022-12-23T01:47:37.874Z,99208.16
2022-12-23T01:50:19.700Z,99201.13
2022-12-23T01:53:07.392Z,99200.78
2022-12-23T01:55:44.124Z,99194.38
2022-12-23T01:58:14.967Z,99198.63
2022-12-23T02:00:43.057Z,99192.22
2022-12-23T02:03:11.726Z,99193.72
2022-12-23T02:05:39.641Z,99184.94
2022-12-23T02:08:07.356Z,99180.16
2022-12-23T02:10:50.567Z,99176.59
2022-12-23T02:13:53.523Z,99178.09
2022-12-23T02:16:21.604Z,99175.34
2022-12-23T02:18:54.917Z,99170.31
2022-12-23T02:21:51.409Z,99165.47
2022-12-23T02:25:11.740Z,99170.31
2022-12-23T02:27:45.465Z,99165.22
2022-12-23T02:30:38.816Z,99169.94
2022-12-23T02:33:30.006Z,99164.34
2022-12-23T02:36:21.524Z,99168.22
2022-12-23T02:39:00.337Z,99165.56
2022-12-23T02:41:30.696Z,99164.19
2022-12-23T02:44:36.374Z,99160.13
2022-12-23T02:47:19.009Z,99164.75
2022-12-23T02:49:52.396Z,99162.31
2022-12-23T02:52:21.245Z,99158.94
2022-12-23T02:54:52.741Z,99143.03
2022-12-23T02:57:21.342Z,99154.78
2022-12-23T02:59:50.790Z,99150.06
2022-12-23T03:02:19.227Z,99146.87
2022-12-23T03:04:47.356Z,99149.09
2022-12-23T03:07:19.580Z,99147.28
2022-12-23T03:09:58.316Z,99144.69
2022-12-23T03:12:38.389Z,99148.44
2022-12-23T03:15:35.576Z,99139.78
2022-12-23T03:18:03.625Z,99141.78
2022-12-23T03:20:44.069Z,99130.06
2022-12-23T03:23:20.556Z,99127.34
2022-12-23T03:25:53.573Z,99132.31
2022-12-23T03:28:31.494Z,99142.53
2022-12-23T03:31:00.706Z,99138.22
2022-12-23T03:33:40.083Z,99135.38
2022-12-23T03:36:17.305Z,99134.31
2022-12-23T03:38:45.783Z,99128.91
2022-12-23T03:41:17.048Z,99139.81
2022-12-23T03:44:04.392Z,99141.97
2022-12-23T03:46:40.629Z,99136.62
2022-12-23T03:49:23.939Z,99136.38
2022-12-23T03:51:56.766Z,99138.25
2022-12-23T03:54:28.713Z,99133.19
2022-12-23T03:57:04.943Z,99134.50
2022-12-23T03:59:51.164Z,99126.03
2022-12-23T04:02:26.514Z,99136.09
2022-12-23T04:05:22.003Z,99124.66
2022-12-23T04:08:12.008Z,99147.53
2022-12-23T04:10:40.114Z,99133.72
2022-12-23T04:13:08.074Z,99142.50
2022-12-23T04:15:39.958Z,99136.38
2022-12-23T04:18:09.274Z,99137.44
2022-12-23T04:20:37.844Z,99129.47
2022-12-23T04:23:05.546Z,99122.56
2022-12-23T04:25:33.494Z,99132.34
2022-12-23T04:28:02.292Z,99123.31
2022-12-23T04:30:34.353Z,99120.91
2022-12-23T04:33:03.111Z,99111.13
2022-12-23T04:35:31.215Z,99119.88
2022-12-23T04:37:58.965Z,99119.06
2022-12-23T04:40:27.279Z,99118.03
2022-12-23T04:42:54.970Z,99108.75
2022-12-23T04:45:22.562Z,99114.59
2022-12-23T04:47:50.509Z,99118.22
2022-12-23T04:50:23.577Z,99124.59
2022-12-23T04:52:51.767Z,99116.09
2022-12-23T04:55:19.348Z,99106.06
2022-12-23T04:57:47.302Z,99114.28
2022-12-23T05:00:16.181Z,99119.28
2022-12-23T05:02:43.991Z,99123.53
2022-12-23T05:05:11.853Z,99128.25
2022-12-23T05:07:39.936Z,99123.53
2022-12-23T05:10:09.890Z,99124.28
2022-12-23T05:12:38.517Z,99134.34
2022-12-23T05:15:07.910Z,99131.97
2022-12-23T05:17:35.578Z,99117.91
2022-12-23T05:20:03.470Z,99127.94
2022-12-23T05:22:31.647Z,99118.00
2022-12-23T05:24:59.241Z,99116.19
2022-12-23T05:27:26.799Z,99128.66
2022-12-23T05:30:04.191Z,99132.81
2022-12-23T05:32:32.128Z,99133.00
2022-12-23T05:35:00.021Z,99139.94
2022-12-23T05:37:27.655Z,99141.34
2022-12-23T05:39:57.005Z,99145.31
2022-12-23T05:42:25.131Z,99134.06
2022-12-23T05:44:52.753Z,99136.81
2022-12-23T05:47:20.500Z,99141.69
2022-12-23T05:49:51.343Z,99142.38
2022-12-23T05:52:19.057Z,99139.53
2022-12-23T05:54:46.851Z,99136.31
2022-12-23T05:57:16.866Z,99135.25
2022-12-23T05:59:44.783Z,99137.53
2022-12-23T06:02:12.626Z,99134.94
2022-12-23T06:04:40.742Z,99136.53
2022-12-23T06:07:08.388Z,99135.53
2022-12-23T06:09:36.168Z,99134.38
2022-12-23T06:12:04.339Z,99134.69
2022-12-23T06:14:31.961Z,99134.06
2022-12-23T06:16:59.750Z,99141.56
2022-12-23T06:19:27.847Z,99152.19
2022-12-23T06:21:55.691Z,99158.66
2022-12-23T06:24:23.426Z,99151.25
2022-12-23T06:26:56.786Z,99154.72
2022-12-23T06:29:25.031Z,99168.56
2022-12-23T06:31:54.898Z,99161.09
2022-12-23T06:34:22.614Z,99157.66
2022-12-23T06:36:50.371Z,99158.19
2022-12-23T06:39:18.406Z,99153.13
2022-12-23T06:41:46.514Z,99145.94
2022-12-23T06:44:14.101Z,99157.63
2022-12-23T06:46:41.994Z,99149.94
2022-12-23T06:49:13.473Z,99149.91
2022-12-23T06:51:41.861Z,99139.72
2022-12-23T06:54:11.133Z,99144.56
2022-12-23T06:56:38.975Z,99142.88
2022-12-23T06:59:06.834Z,99154.94
2022-12-23T07:01:34.857Z,99144.00
2022-12-23T07:04:02.717Z,99135.22
2022-12-23T07:06:30.668Z,99140.47
2022-12-23T07:08:58.629Z,99143.34
2022-12-23T07:11:26.319Z,99145.28
2022-12-23T07:13:54.322Z,99138.31
2022-12-23T07:16:22.053Z,99137.22
2022-12-23T07:18:49.725Z,99132.81
2022-12-23T07:21:24.858Z,99133.25
2022-12-23T07:23:56.206Z,99133.06
2022-12-23T07:26:24.148Z,99157.91
2022-12-23T07:28:51.941Z,99152.53
2022-12-23T07:31:19.672Z,99171.41
2022-12-23T07:33:47.688Z,99180.22
2022-12-23T07:36:15.469Z,99203.28
2022-12-23T07:38:43.203Z,99207.31
2022-12-23T07:41:11.163Z,99214.69
2022-12-23T07:43:38.927Z,99212.69
2022-12-23T07:46:07.923Z,99202.53
2022-12-23T07:48:36.125Z,99195.34
2022-12-23T07:51:06.788Z,99200.09
2022-12-23T07:53:34.341Z,99190.88
2022-12-23T07:56:08.710Z,99182.12
2022-12-23T07:58:36.410Z,99181.56
2022-12-23T08:01:09.204Z,99186.88
2022-12-23T08:03:37.409Z,99172.78
2022-12-23T08:06:07.742Z,99161.59
2022-12-23T08:08:37.147Z,99152.00
2022-12-23T08:11:10.127Z,99154.72
2022-12-23T08:13:39.847Z,99164.81
2022-12-23T08:16:11.589Z,99156.56
2022-12-23T08:18:40.876Z,99155.22
2022-12-23T08:21:15.081Z,99154.97
2022-12-23T08:23:43.409Z,99162.16
2022-12-23T08:26:14.330Z,99166.41
2022-12-23T08:28:43.382Z,99153.59
2022-12-23T08:31:37.566Z,99153.91
2022-12-23T08:34:05.165Z,99142.72
2022-12-23T08:36:34.852Z,99137.03
2022-12-23T08:39:07.312Z,99136.81
2022-12-23T08:41:43.987Z,99138.09
2022-12-23T08:44:12.055Z,99133.38
2022-12-23T08:46:40.657Z,99142.22
2022-12-23T08:49:09.008Z,99141.13
2022-12-23T08:51:37.182Z,99144.88
2022-12-23T08:54:05.485Z,99134.75
2022-12-23T08:56:35.800Z,99140.84
2022-12-23T08:59:03.949Z,99132.34
2022-12-23T09:01:34.319Z,99124.31
2022-12-23T09:04:06.208Z,99122.47
2022-12-23T09:06:39.610Z,99124.00
2022-12-23T09:09:09.266Z,99118.19
2022-12-23T09:11:39.071Z,99127.03
2022-12-23T09:14:07.080Z,99111.06
2022-12-23T09:16:34.795Z,99104.97
2022-12-23T09:19:03.439Z,99099.31
2022-12-23T09:21:31.118Z,99088.16
2022-12-23T09:23:58.838Z,99084.16
2022-12-23T09:26:30.244Z,99087.16
2022-12-23T09:28:58.538Z,99101.72
2022-12-23T09:31:30.800Z,99109.75
2022-12-23T09:34:04.354Z,99114.94
2022-12-23T09:36:32.466Z,99114.81
2022-12-23T09:39:00.111Z,99118.16
2022-12-23T09:41:39.626Z,99113.69
2022-12-23T09:44:13.238Z,99119.16
2022-12-23T09:46:50.760Z,99123.81
2022-12-23T09:49:20.327Z,99112.16
2022-12-23T09:51:53.079Z,99115.00
2022-12-23T09:54:27.042Z,99116.97
2022-12-23T09:57:02.761Z,99110.69
2022-12-23T09:59:52.890Z,99111.19
2022-12-23T10:02:51.581Z,99103.38
2022-12-23T10:05:49.982Z,99093.75
2022-12-23T10:08:30.970Z,99089.88
2022-12-23T10:11:12.023Z,99087.72
2022-12-23T10:13:49.781Z,99085.31
2022-12-23T10:16:24.221Z,99091.44
2022-12-23T10:19:04.667Z,99092.50
2022-12-23T10:21:32.556Z,99078.44
2022-12-23T10:24:05.477Z,99068.59
2022-12-23T10:26:46.538Z,99056.66
2022-12-23T10:29:20.157Z,99055.31
2022-12-23T10:32:00.164Z,99047.81
2022-12-23T10:34:52.428Z,99049.16
2022-12-23T10:37:27.521Z,99048.31
2022-12-23T10:40:11.862Z,99045.97
2022-12-23T10:42:45.854Z,99047.25
2022-12-23T10:45:34.883Z,99038.91
2022-12-23T10:48:13.904Z,99040.28
2022-12-23T10:50:50.170Z,99035.72
2022-12-23T10:53:40.875Z,99027.22
2022-12-23T10:56:09.291Z,99015.50
2022-12-23T10:58:40.996Z,99022.34
2022-12-23T11:01:21.791Z,99017.66
2022-12-23T11:04:09.437Z,99013.97
2022-12-23T11:07:18.059Z,99021.91
2022-12-23T11:09:47.677Z,99002.19
2022-12-23T11:12:15.795Z,99007.84
2022-12-23T11:14:54.860Z,99018.66
2022-12-23T11:17:30.262Z,99015.25
2022-12-23T11:20:19.443Z,99020.31
2022-12-23T11:22:54.077Z,99029.19
2022-12-23T11:25:24.970Z,99024.00
2022-12-23T11:28:12.757Z,99021.91
2022-12-23T11:30:55.778Z,99015.59
2022-12-23T11:33:26.794Z,99016.09
2022-12-23T11:36:19.865Z,99017.66
2022-12-23T11:39:03.170Z,99014.81
2022-12-23T11:41:37.787Z,99016.09
2022-12-23T11:44:27.130Z,99017.69
2022-12-23T11:46:55.124Z,99020.31
2022-12-23T11:49:22.594Z,99015.56
2022-12-23T11:52:05.573Z,99018.19
2022-12-23T11:54:34.189Z,99023.56
2022-12-23T11:57:03.948Z,99027.94
2022-12-23T11:59:42.501Z,99028.22
2022-12-23T12:02:18.508Z,99037.59
2022-12-23T12:04:56.395Z,99033.06
2022-12-23T12:07:25.464Z,99030.84
2022-12-23T12:09:57.226Z,99032.28
2022-12-23T12:12:26.064Z,99042.59
2022-12-23T12:14:55.859Z,99045.03
2022-12-23T12:17:31.223Z,99041.84
2022-12-23T12:20:18.011Z,99034.78
2022-12-23T12:22:51.164Z,99036.31
2022-12-23T12:25:21.029Z,99038.44
2022-12-23T12:28:00.703Z,99029.28
2022-12-23T12:30:36.702Z,99027.56
2022-12-23T12:33:28.002Z,99032.53
2022-12-23T12:36:26.408Z,99035.00
2022-12-23T12:38:55.162Z,99034.13
2022-12-23T12:41:29.041Z,99043.13
2022-12-23T12:44:19.735Z,99044.47
2022-12-23T12:47:15.960Z,99042.88
2022-12-23T12:49:57.368Z,99031.19
2022-12-23T12:52:27.079Z,99023.22
2022-12-23T12:54:59.249Z,99036.44
2022-12-23T12:57:27.887Z,99030.31
2022-12-23T13:00:05.275Z,99033.09
2022-12-23T13:02:40.449Z,99032.19
2022-12-23T13:05:16.266Z,99032.81
2022-12-23T13:08:22.963Z,99038.00
2022-12-23T13:11:06.026Z,99031.31
2022-12-23T13:13:40.889Z,99027.91
2022-12-23T13:16:37.119Z,99031.88
2022-12-23T13:19:33.746Z,99036.81
2022-12-23T13:22:24.395Z,99043.97
2022-12-23T13:24:55.582Z,99042.66
2022-12-23T13:27:35.513Z,99044.53
2022-12-23T13:30:17.863Z,99037.47
2022-12-23T13:33:18.441Z,99033.28
2022-12-23T13:36:07.556Z,99038.91
2022-12-23T13:38:44.254Z,99034.22
2022-12-23T13:41:33.045Z,99037.91
2022-12-23T13:44:02.807Z,99035.69
2022-12-23T13:46:48.572Z,99035.44
2022-12-23T13:49:22.030Z,99037.72
2022-12-23T13:51:56.163Z,99042.81
2022-12-23T13:54:32.635Z,99039.00
2022-12-23T13:57:25.066Z,99044.75
2022-12-23T14:00:19.767Z,99053.25
2022-12-23T14:03:10.597Z,99048.25
2022-12-23T14:05:48.053Z,99051.44
2022-12-23T14:08:21.667Z,99052.94
2022-12-23T14:10:52.291Z,99051.69
2022-12-23T14:13:22.250Z,99050.84
2022-12-23T14:16:03.180Z,99059.84
2022-12-23T14:18:52.742Z,99057.06
2022-12-23T14:21:29.618Z,99063.31
2022-12-23T14:24:20.074Z,99059.00
2022-12-23T14:27:25.873Z,99052.75
2022-12-23T14:30:10.352Z,99045.47
2022-12-23T14:32:50.996Z,99040.84
2022-12-23T14:35:28.283Z,99046.53
2022-12-23T14:38:08.190Z,99061.28
2022-12-23T14:40:39.294Z,99060.53
2022-12-23T14:43:24.364Z,99056.22
2022-12-23T14:46:00.356Z,99060.62
2022-12-23T14:48:34.091Z,99067.91
2022-12-23T14:51:08.263Z,99077.72
2022-12-23T14:53:38.131Z,99075.34
2022-12-23T14:56:22.551Z,99069.34
2022-12-23T14:59:01.721Z,99069.41
2022-12-23T15:01:33.896Z,99068.63
2022-12-23T15:04:17.416Z,99066.78
2022-12-23T15:06:48.228Z,99053.72
2022-12-23T15:09:28.217Z,99055.09
2022-12-23T15:11:58.740Z,99060.09
2022-12-23T15:14:35.904Z,99058.56
2022-12-23T15:17:25.373Z,99059.22
2022-12-23T15:19:54.216Z,99057.78
2022-12-23T15:22:28.451Z,99056.87
2022-12-23T15:24:58.179Z,99058.50
2022-12-23T15:27:35.665Z,99061.44
2022-12-23T15:30:19.187Z,99066.84
2022-12-23T15:32:48.854Z,99068.66
2022-12-23T15:35:24.177Z,99081.19
2022-12-23T15:37:52.327Z,99079.25
2022-12-23T15:40:33.801Z,99085.63
2022-12-23T15:43:14.697Z,99096.53
2022-12-23T15:45:45.925Z,99083.25
2022-12-23T15:48:26.094Z,99083.94
2022-12-23T15:51:08.555Z,99082.81
2022-12-23T15:53:41.051Z,99079.28
2022-12-23T15:56:22.687Z,99071.34
2022-12-23T15:58:54.308Z,99062.94
2022-12-23T16:01:39.506Z,99075.16
2022-12-23T16:04:07.900Z,99077.97
2022-12-23T16:06:36.387Z,99091.06
2022-12-23T16:09:16.699Z,99072.19
2022-12-23T16:11:51.489Z,99071.19
2022-12-23T16:14:31.631Z,99074.50
2022-12-23T16:17:09.314Z,99086.56
2022-12-23T16:19:54.746Z,99105.19
2022-12-23T16:22:30.645Z,99100.53
2022-12-23T16:25:19.884Z,99078.87
2022-12-23T16:27:54.733Z,99064.31
2022-12-23T16:30:37.433Z,99064.81
2022-12-23T16:33:42.878Z,99065.50
2022-12-23T16:36:31.995Z,99063.84
2022-12-23T16:39:09.460Z,99066.16
2022-12-23T16:41:37.491Z,99063.81
2022-12-23T16:44:05.634Z,99069.69
2022-12-23T16:46:37.228Z,99073.81
2022-12-23T16:49:07.416Z,99070.22
2022-12-23T16:51:38.057Z,99065.00
2022-12-23T16:54:06.065Z,99066.91
2022-12-23T16:56:39.861Z,99077.31
2022-12-23T16:59:07.987Z,99065.47
2022-12-23T17:01:42.297Z,99072.13
2022-12-23T17:04:10.419Z,99068.53
2022-12-23T17:06:38.598Z,99058.81
2022-12-23T17:09:09.837Z,99052.94
2022-12-23T17:11:48.891Z,99056.22
2022-12-23T17:14:25.553Z,99059.53
2022-12-23T17:16:53.614Z,99056.09
2022-12-23T17:19:27.986Z,99053.41
2022-12-23T17:22:02.441Z,99053.09
2022-12-23T17:24:36.226Z,99059.25
2022-12-23T17:27:12.764Z,99059.81
2022-12-23T17:29:41.835Z,99056.37
2022-12-23T17:32:11.879Z,99057.19
2022-12-23T17:34:39.638Z,99059.09
2022-12-23T17:37:15.693Z,99052.78
2022-12-23T17:42:36.137Z,99052.81
2022-12-23T17:45:27.405Z,99049.00
2022-12-23T17:47:55.377Z,99042.59
2022-12-23T17:50:24.148Z,99037.88
2022-12-23T17:52:56.859Z,99028.28
2022-12-23T17:55:32.074Z,99022.00
2022-12-23T17:57:59.771Z,99031.34
2022-12-23T18:00:34.595Z,99036.56
2022-12-23T18:03:07.069Z,99036.00
2022-12-23T18:05:35.824Z,99048.50
2022-12-23T18:08:04.465Z,99046.97
2022-12-23T18:10:36.711Z,99051.38
2022-12-23T18:13:12.888Z,99042.19
2022-12-23T18:15:43.383Z,99046.22
2022-12-23T18:18:22.005Z,99054.25
2022-12-23T18:20:55.906Z,99052.06
2022-12-23T18:23:28.989Z,99050.22
2022-12-23T18:25:57.378Z,99040.56
2022-12-23T18:28:25.673Z,99041.31
2022-12-23T18:30:55.919Z,99042.78
2022-12-23T18:33:23.753Z,99045.78
2022-12-23T18:35:51.870Z,99048.41
2022-12-23T18:38:19.527Z,99039.00
2022-12-23T18:40:47.339Z,99046.00
2022-12-23T18:43:20.118Z,99049.28
2022-12-23T18:45:52.873Z,99045.44
2022-12-23T18:48:21.937Z,99061.47
2022-12-23T18:50:49.835Z,99057.75
2022-12-23T18:53:24.350Z,99063.03
2022-12-23T18:55:54.081Z,99067.12
2022-12-23T18:58:22.609Z,99064.97
2022-12-23T19:00:51.345Z,99065.06
2022-12-23T19:03:29.990Z,99053.63
2022-12-23T19:05:59.160Z,99062.16
2022-12-23T19:08:27.995Z,99069.63
2022-12-23T19:10:55.976Z,99074.94
2022-12-23T19:13:23.792Z,99066.19
2022-12-23T19:15:52.177Z,99064.88
2022-12-23T19:18:22.279Z,99054.50
2022-12-23T19:20:50.101Z,99059.81
2022-12-23T19:23:19.618Z,99064.88
2022-12-23T19:25:54.861Z,99060.62
2022-12-23T19:28:24.065Z,99055.56
2022-12-23T19:30:52.229Z,99060.06
2022-12-23T19:33:19.941Z,99061.66
2022-12-23T19:35:48.020Z,99066.72
2022-12-23T19:38:15.678Z,99056.09
2022-12-23T19:40:44.230Z,99058.72
2022-12-23T19:43:12.262Z,99063.25
2022-12-23T19:45:39.990Z,99070.97
2022-12-23T19:48:07.717Z,99089.31
2022-12-23T19:50:35.757Z,99097.25
2022-12-23T19:53:03.412Z,99099.06
2022-12-23T19:55:33.397Z,99083.72
2022-12-23T19:58:01.302Z,99083.47
2022-12-23T20:00:28.955Z,99078.16
2022-12-23T20:02:59.177Z,99081.88
2022-12-23T20:05:27.190Z,99098.09
2022-12-23T20:07:55.401Z,99093.03
2022-12-23T20:10:24.319Z,99097.56
2022-12-23T20:12:52.062Z,99098.34
2022-12-23T20:15:20.046Z,99088.53
2022-12-23T20:17:48.276Z,99091.44
2022-12-23T20:20:18.098Z,99101.00
2022-12-23T20:22:46.051Z,99090.91
2022-12-23T20:25:13.959Z,99095.72
2022-12-23T20:27:41.797Z,99090.41
2022-12-23T20:30:11.846Z,99102.34
2022-12-23T20:32:41.069Z,99086.41
2022-12-23T20:35:08.870Z,99097.84
2022-12-23T20:37:36.635Z,99097.28
2022-12-23T20:40:06.162Z,99095.41
2022-12-23T20:42:34.655Z,99098.34
2022-12-23T20:45:02.361Z,99092.22
2022-12-23T20:47:30.338Z,99085.31
2022-12-23T20:49:59.118Z,99082.12
2022-12-23T20:52:26.881Z,99089.03
2022-12-23T20:54:54.836Z,99077.09
2022-12-23T20:57:23.519Z,99070.16
2022-12-23T20:59:53.053Z,99061.38
2022-12-23T21:02:20.968Z,99057.41
2022-12-23T21:04:48.615Z,99062.44
2022-12-23T21:07:16.437Z,99046.75
2022-12-23T21:09:47.392Z,99053.94
2022-12-23T21:12:15.144Z,99044.38
2022-12-23T21:14:43.123Z,99037.47
2022-12-23T21:17:11.111Z,99032.41
2022-12-23T21:19:40.087Z,99035.59
2022-12-23T21:22:08.097Z,99040.91
2022-12-23T21:24:36.032Z,99045.66
2022-12-23T21:27:04.776Z,99038.75
2022-12-23T21:29:32.993Z,99037.12
2022-12-23T21:32:01.586Z,99035.00
2022-12-23T21:34:29.252Z,99039.22
2022-12-23T21:36:57.021Z,99026.06
2022-12-23T21:39:25.067Z,99031.47
2022-12-23T21:41:52.737Z,99032.25
2022-12-23T21:44:23.205Z,99037.06
2022-12-23T21:46:51.575Z,99021.62
2022-12-23T21:49:19.851Z,99016.25
2022-12-23T21:51:47.668Z,99012.22
2022-12-23T21:54:15.553Z,98999.97
2022-12-23T21:56:45.568Z,98999.16
2022-12-23T21:59:14.379Z,98995.44
2022-12-23T22:01:42.889Z,98988.22
2022-12-23T22:04:11.550Z,98987.16
2022-12-23T22:06:43.743Z,98989.50
2022-12-23T22:09:20.433Z,98991.91
2022-12-23T22:11:48.395Z,98987.59
2022-12-23T22:14:18.589Z,98992.12
2022-12-23T22:16:49.015Z,98987.87
2022-12-23T22:19:17.226Z,98984.91
2022-12-23T22:21:45.139Z,98960.66
2022-12-23T22:24:12.777Z,98963.53
2022-12-23T22:26:40.776Z,98983.97
2022-12-23T22:29:08.540Z,98970.88
2022-12-23T22:31:49.862Z,98965.47
2022-12-23T22:34:19.896Z,98943.25
2022-12-23T22:36:49.499Z,98934.94
2022-12-23T22:39:20.975Z,98924.28
2022-12-23T22:41:52.542Z,98918.56
2022-12-23T22:44:21.099Z,98926.72
2022-12-23T22:46:48.909Z,98931.25
2022-12-23T22:49:17.369Z,98931.53
2022-12-23T22:51:45.509Z,98931.69
2022-12-23T22:54:13.273Z,98929.03
2022-12-23T22:56:41.050Z,98935.63
2022-12-23T22:59:22.094Z,98933.37
2022-12-23T23:01:50.563Z,98933.75
2022-12-23T23:04:19.263Z,98930.91
2022-12-23T23:06:47.201Z,98927.34
2022-12-23T23:09:17.175Z,98917.03
2022-12-23T23:11:45.674Z,98903.37
2022-12-23T23:14:13.656Z,98899.53
2022-12-23T23:16:42.357Z,98889.50
2022-12-23T23:19:11.458Z,98904.66
2022-12-23T23:21:39.261Z,98901.22
2022-12-23T23:24:07.276Z,98900.47
2022-12-23T23:26:35.288Z,98899.12
2022-12-23T23:29:03.167Z,98903.13
2022-12-23T23:31:42.007Z,98904.97
2022-12-23T23:34:11.653Z,98920.31
2022-12-23T23:36:39.611Z,98929.34
2022-12-23T23:39:07.502Z,98929.41
2022-12-23T23:41:35.473Z,98922.03
2022-12-23T23:44:03.265Z,98932.56
2022-12-23T23:46:30.935Z,98939.53
2022-12-23T23:48:59.122Z,98951.22
2022-12-23T23:51:26.713Z,98945.44
2022-12-23T23:53:54.549Z,98960.25
2022-12-23T23:56:25.835Z,98952.03
2022-12-23T23:58:54.961Z,98941.13
